Villa Atamisqui, Argentina
Current Conditions -  °F | °C
As of 10:00 AM on Tuesday 21 Oct 2014 (Local Time) from SANT Reporting Station
Scattered Clouds Scattered Clouds  
Wind Chill: 26°   Ceiling: Unl
Heat Index: 27°   Visibility: 6mi
Dew Point: 16°   Wind: 5mph
Humidity: 54%   Direction: 320°NW
Pressure: 30.09"   Gusts: NA
Location:  28.48°S, 63.8°W
Report Text: SANT 211300Z 32004KT 9999 FEW040 SCT10026/16 Q1019
Loading
Personal Weather Stations






























Interactive Weather Map
Tropical Storm Tracking
New forecast layout! Learn more

10-Day Weather Forecast

Advertisements
Track Severe Weather on mobile